Share

Hua Hin, Thailand

Hua Hin Aero (VTPH) Elev 20 ft | 12.58 °N, 99.95 °E | Change Station

Current weather conditions updated 33 minutes ago

Partly Cloudy
Partly Cloudy
90 °F
Feels Like 105 °F
N
20
Wind Variable Wind from SSE
Sunrise 6:05 AM
Sunset 6:33 PM
Moon Waning Gibbous

Today is forecast to be nearly the same temperature as yesterday.

Pressure 29.71 in
Visibility 6.2 miles
Clouds Few 3000 ft
Heat Index 105 °F
Dew Point 79 °F
Humidity 70%
Rainfall 0.00 in
Snow Depth Not available.
UV 10 out of 16
Pollen Not available.
Air Quality Not available.
Flu Activity Not available.
METAR VTPH 200800Z 15017KT 9999 FEW030 32/26 Q1006 NOSIG

More Conditions Fewer Conditions

Pressure 29.71 in
Visibility 6.2 miles
Clouds Few 3000 ft
Heat Index 105 °F
Dew Point 79 °F
Humidity 70%
Rainfall 0.00 in
Snow Depth Not available.
UV 10 out of 16
Pollen Not available.
Air Quality Not available.
Flu Activity Not available.
METAR VTPH 200800Z 15017KT 9999 FEW030 32/26 Q1006 NOSIG

More Conditions Fewer Conditions

10-Day Weather Forecast

Almanac

Astronomy

Apr. 20, 2014 Rise Set
Actual Time 6:05 AM ICT 6:33 PM ICT
Civil Twilight 5:43 AM ICT 6:54 PM ICT
Nautical Twilight 5:18 AM ICT 7:20 PM ICT
Astronomical Twilight 4:52 AM ICT 7:45 PM ICT
Moon 11:19 PM ICT 10:14 AM ICT
Length of Visible Light 13h 11m
Length of Day
12h 27m
Tomorrow will be 0m 39s longer.
Waning Gibbous, 72% of the Moon is Illuminated
Today
Waning Gibbous
Apr 22
Last Quarter
Apr 29
New
May 6
First Quarter
May 14
Full

Yesterday's Extremes

Country Highs Country Lows

Community

  • Sunny day at the coast-Cape Arago Lighthouse
    Sunny day at the coast-Cape Arago Lighthouse
  • Cherry Blossoms
    Cherry Blossoms
  • White-Crowned Sparrow
    White-Crowned Sparrow
  • New Day
    New Day
  • Happy Easter!
    Happy Easter!

WunderPhotos

Upload Photos

1,703,122 photos uploaded!

WunderBlogs® & News

Nearby

Snow Depth

Not available.

Coastal Water Temperatures

Place Temperature
No Stations Reporting

Earthquake Activity

City Distance Mag. Time & Date
No recent earthquake activity has been reported nearby.
Minimum magnitude displayed is 2.5.

Nearby Weather Stations

There are no personal weather stations in this area.

What do you think?

We're not finished. Please let us know what you like, what you don't like, and what you are still missing.